Terminal Aerodrome Forecast
Issued by NWS Chicago, IL

Home | Current Version | Previous Version | Text Only | Print | Product List | Glossary Off
Versions: 1 2 3 4 5 6 7 8 9 10 11 12 13 14 15 16 17 18 19 20 21 22 23 24 25 26 27

000
FTUS43 KLOT 181735
TAFRFD
TAF
KRFD 181735Z 1818/1918 23004KT P6SM BKN035 BKN250
     FM190100 19005KT P6SM BKN120
     FM190600 22005KT P6SM BKN060 PROB30 1906/1912 5SM -TSRA
      BKN050CB
     FM191500 33005KT P6SM SCT015 BKN040=

USA.gov is the U.S. government's official web portal to all federal, state and local government web resources and services.